sensor_id;sensor_type;location;lat;lon;timestamp;P1;durP1;ratioP1;P2;durP2;ratioP2
43744;SDS011;29359;53.048;8.732;2023-02-19T00:00:16;7.40;;;5.45;;
43744;SDS011;29359;53.048;8.732;2023-02-19T00:02:18;5.97;;;5.47;;
43744;SDS011;29359;53.048;8.732;2023-02-19T00:04:20;6.57;;;6.00;;
43744;SDS011;29359;53.048;8.732;2023-02-19T00:06:23;8.32;;;5.85;;
43744;SDS011;29359;53.048;8.732;2023-02-19T00:08:25;7.05;;;5.93;;
43744;SDS011;29359;53.048;8.732;2023-02-19T00:10:27;7.25;;;6.40;;
43744;SDS011;29359;53.048;8.732;2023-02-19T00:12:28;7.07;;;6.38;;
43744;SDS011;29359;53.048;8.732;2023-02-19T00:14:30;8.57;;;6.45;;
43744;SDS011;29359;53.048;8.732;2023-02-19T00:16:35;7.88;;;7.07;;
43744;SDS011;29359;53.048;8.732;2023-02-19T00:18:39;11.00;;;6.93;;
43744;SDS011;29359;53.048;8.732;2023-02-19T00:20:41;7.63;;;6.82;;
43744;SDS011;29359;53.048;8.732;2023-02-19T00:22:42;7.82;;;6.80;;
43744;SDS011;29359;53.048;8.732;2023-02-19T00:24:44;7.78;;;7.07;;
43744;SDS011;29359;53.048;8.732;2023-02-19T00:26:48;7.95;;;6.38;;
43744;SDS011;29359;53.048;8.732;2023-02-19T00:28:50;7.28;;;6.57;;
43744;SDS011;29359;53.048;8.732;2023-02-19T00:30:52;8.40;;;7.05;;
43744;SDS011;29359;53.048;8.732;2023-02-19T00:32:54;10.00;;;6.97;;
43744;SDS011;29359;53.048;8.732;2023-02-19T00:34:55;8.52;;;6.03;;
43744;SDS011;29359;53.048;8.732;2023-02-19T00:36:57;9.30;;;5.60;;
43744;SDS011;29359;53.048;8.732;2023-02-19T00:38:58;10.77;;;5.63;;
43744;SDS011;29359;53.048;8.732;2023-02-19T00:41:00;9.07;;;5.57;;
43744;SDS011;29359;53.048;8.732;2023-02-19T00:43:19;8.18;;;5.50;;
43744;SDS011;29359;53.048;8.732;2023-02-19T00:45:20;6.22;;;5.63;;
43744;SDS011;29359;53.048;8.732;2023-02-19T00:47:22;6.38;;;5.63;;
43744;SDS011;29359;53.048;8.732;2023-02-19T00:49:23;7.28;;;6.03;;
43744;SDS011;29359;53.048;8.732;2023-02-19T00:51:26;5.90;;;5.40;;
43744;SDS011;29359;53.048;8.732;2023-02-19T00:53:30;5.28;;;4.50;;
43744;SDS011;29359;53.048;8.732;2023-02-19T00:55:31;5.68;;;5.05;;
43744;SDS011;29359;53.048;8.732;2023-02-19T00:57:33;5.72;;;4.85;;
43744;SDS011;29359;53.048;8.732;2023-02-19T00:59:34;5.70;;;5.05;;
43744;SDS011;29359;53.048;8.732;2023-02-19T01:01:37;6.28;;;5.65;;
43744;SDS011;29359;53.048;8.732;2023-02-19T01:03:39;5.57;;;5.03;;
43744;SDS011;29359;53.048;8.732;2023-02-19T01:05:40;5.20;;;4.80;;
43744;SDS011;29359;53.048;8.732;2023-02-19T01:07:42;5.22;;;4.72;;
43744;SDS011;29359;53.048;8.732;2023-02-19T01:09:43;5.22;;;4.72;;
43744;SDS011;29359;53.048;8.732;2023-02-19T01:11:45;6.35;;;5.38;;
43744;SDS011;29359;53.048;8.732;2023-02-19T01:13:46;4.97;;;4.57;;
43744;SDS011;29359;53.048;8.732;2023-02-19T01:15:48;5.43;;;4.93;;
43744;SDS011;29359;53.048;8.732;2023-02-19T01:17:49;4.90;;;4.30;;
43744;SDS011;29359;53.048;8.732;2023-02-19T01:19:51;4.65;;;4.10;;
43744;SDS011;29359;53.048;8.732;2023-02-19T01:21:53;4.53;;;4.10;;
43744;SDS011;29359;53.048;8.732;2023-02-19T01:23:54;3.42;;;3.13;;
43744;SDS011;29359;53.048;8.732;2023-02-19T01:25:56;2.92;;;2.72;;
43744;SDS011;29359;53.048;8.732;2023-02-19T01:27:58;2.40;;;2.20;;
43744;SDS011;29359;53.048;8.732;2023-02-19T01:29:59;3.90;;;2.85;;
43744;SDS011;29359;53.048;8.732;2023-02-19T01:32:01;3.05;;;2.75;;
43744;SDS011;29359;53.048;8.732;2023-02-19T01:34:03;3.42;;;2.80;;
43744;SDS011;29359;53.048;8.732;2023-02-19T01:36:05;2.25;;;2.08;;
43744;SDS011;29359;53.048;8.732;2023-02-19T01:38:07;2.85;;;2.65;;
43744;SDS011;29359;53.048;8.732;2023-02-19T01:40:08;3.40;;;2.50;;
43744;SDS011;29359;53.048;8.732;2023-02-19T01:42:14;2.60;;;2.40;;
43744;SDS011;29359;53.048;8.732;2023-02-19T01:46:18;2.35;;;2.15;;
43744;SDS011;29359;53.048;8.732;2023-02-19T01:48:22;2.53;;;2.33;;
43744;SDS011;29359;53.048;8.732;2023-02-19T01:50:28;2.30;;;2.10;;
43744;SDS011;29359;53.048;8.732;2023-02-19T01:52:33;2.60;;;2.40;;
43744;SDS011;29359;53.048;8.732;2023-02-19T01:54:37;2.58;;;2.38;;
43744;SDS011;29359;53.048;8.732;2023-02-19T01:56:42;2.63;;;2.42;;
43744;SDS011;29359;53.048;8.732;2023-02-19T01:58:46;2.53;;;2.33;;
43744;SDS011;29359;53.048;8.732;2023-02-19T02:00:47;2.85;;;2.00;;
43744;SDS011;29359;53.048;8.732;2023-02-19T02:02:50;2.53;;;2.33;;
43744;SDS011;29359;53.048;8.732;2023-02-19T02:04:55;3.92;;;1.90;;
43744;SDS011;29359;53.048;8.732;2023-02-19T02:07:01;2.05;;;1.80;;
43744;SDS011;29359;53.048;8.732;2023-02-19T02:09:25;2.05;;;1.85;;
43744;SDS011;29359;53.048;8.732;2023-02-19T02:11:48;2.97;;;1.83;;
43744;SDS011;29359;53.048;8.732;2023-02-19T02:13:51;2.65;;;2.45;;
43744;SDS011;29359;53.048;8.732;2023-02-19T02:18:26;2.58;;;2.38;;
43744;SDS011;29359;53.048;8.732;2023-02-19T02:27:54;2.75;;;2.45;;
43744;SDS011;29359;53.048;8.732;2023-02-19T02:32:24;2.90;;;2.60;;
43744;SDS011;29359;53.048;8.732;2023-02-19T02:34:33;3.08;;;2.70;;
43744;SDS011;29359;53.048;8.732;2023-02-19T02:36:43;2.85;;;2.60;;
43744;SDS011;29359;53.048;8.732;2023-02-19T02:38:47;2.85;;;2.45;;
43744;SDS011;29359;53.048;8.732;2023-02-19T02:40:50;2.65;;;2.45;;
43744;SDS011;29359;53.048;8.732;2023-02-19T02:42:52;3.47;;;2.85;;
43744;SDS011;29359;53.048;8.732;2023-02-19T02:45:06;3.03;;;2.75;;
43744;SDS011;29359;53.048;8.732;2023-02-19T02:47:41;2.72;;;2.53;;
43744;SDS011;29359;53.048;8.732;2023-02-19T02:49:48;3.65;;;2.90;;
43744;SDS011;29359;53.048;8.732;2023-02-19T02:52:05;4.35;;;3.30;;
43744;SDS011;29359;53.048;8.732;2023-02-19T02:54:28;7.78;;;2.83;;
43744;SDS011;29359;53.048;8.732;2023-02-19T02:56:52;3.65;;;3.08;;
43744;SDS011;29359;53.048;8.732;2023-02-19T02:58:56;4.55;;;3.38;;
43744;SDS011;29359;53.048;8.732;2023-02-19T03:01:35;3.45;;;2.88;;
43744;SDS011;29359;53.048;8.732;2023-02-19T03:03:50;4.18;;;2.42;;
43744;SDS011;29359;53.048;8.732;2023-02-19T03:05:58;2.45;;;2.25;;
43744;SDS011;29359;53.048;8.732;2023-02-19T03:08:19;2.30;;;2.15;;
43744;SDS011;29359;53.048;8.732;2023-02-19T03:10:24;2.13;;;1.92;;
43744;SDS011;29359;53.048;8.732;2023-02-19T03:12:30;3.97;;;2.20;;
43744;SDS011;29359;53.048;8.732;2023-02-19T03:14:52;2.53;;;2.25;;
43744;SDS011;29359;53.048;8.732;2023-02-19T03:17:38;2.33;;;2.13;;
43744;SDS011;29359;53.048;8.732;2023-02-19T03:20:00;2.60;;;1.98;;
43744;SDS011;29359;53.048;8.732;2023-02-19T03:22:13;3.78;;;1.92;;
43744;SDS011;29359;53.048;8.732;2023-02-19T03:24:44;3.65;;;2.40;;
43744;SDS011;29359;53.048;8.732;2023-02-19T03:27:19;2.50;;;1.90;;
43744;SDS011;29359;53.048;8.732;2023-02-19T03:29:22;4.25;;;2.00;;
43744;SDS011;29359;53.048;8.732;2023-02-19T03:31:27;3.30;;;1.80;;
43744;SDS011;29359;53.048;8.732;2023-02-19T03:33:31;2.13;;;1.38;;
43744;SDS011;29359;53.048;8.732;2023-02-19T03:35:35;7.63;;;2.05;;
43744;SDS011;29359;53.048;8.732;2023-02-19T03:37:46;3.15;;;1.27;;
43744;SDS011;29359;53.048;8.732;2023-02-19T03:39:53;6.22;;;1.30;;
43744;SDS011;29359;53.048;8.732;2023-02-19T03:42:04;3.17;;;1.27;;
43744;SDS011;29359;53.048;8.732;2023-02-19T03:44:36;4.45;;;1.63;;
43744;SDS011;29359;53.048;8.732;2023-02-19T03:47:09;6.85;;;1.60;;
43744;SDS011;29359;53.048;8.732;2023-02-19T03:51:50;3.60;;;1.60;;
43744;SDS011;29359;53.048;8.732;2023-02-19T03:54:22;3.08;;;1.20;;
43744;SDS011;29359;53.048;8.732;2023-02-19T03:56:41;4.78;;;1.63;;
43744;SDS011;29359;53.048;8.732;2023-02-19T03:58:56;5.07;;;1.58;;
43744;SDS011;29359;53.048;8.732;2023-02-19T04:01:18;7.57;;;1.65;;
43744;SDS011;29359;53.048;8.732;2023-02-19T04:03:31;3.38;;;1.30;;
43744;SDS011;29359;53.048;8.732;2023-02-19T04:05:51;1.30;;;0.55;;
43744;SDS011;29359;53.048;8.732;2023-02-19T04:08:01;4.63;;;0.88;;
43744;SDS011;29359;53.048;8.732;2023-02-19T04:10:09;6.22;;;1.20;;
43744;SDS011;29359;53.048;8.732;2023-02-19T04:12:11;4.38;;;0.90;;
43744;SDS011;29359;53.048;8.732;2023-02-19T04:14:16;3.35;;;1.13;;
43744;SDS011;29359;53.048;8.732;2023-02-19T04:16:23;4.07;;;1.38;;
43744;SDS011;29359;53.048;8.732;2023-02-19T04:18:30;3.20;;;1.02;;
43744;SDS011;29359;53.048;8.732;2023-02-19T04:20:38;6.32;;;1.92;;
43744;SDS011;29359;53.048;8.732;2023-02-19T04:22:42;4.85;;;0.90;;
43744;SDS011;29359;53.048;8.732;2023-02-19T04:24:49;2.90;;;1.05;;
43744;SDS011;29359;53.048;8.732;2023-02-19T04:26:52;8.32;;;1.52;;
43744;SDS011;29359;53.048;8.732;2023-02-19T04:28:55;4.63;;;1.17;;
43744;SDS011;29359;53.048;8.732;2023-02-19T04:30:57;3.35;;;0.93;;
43744;SDS011;29359;53.048;8.732;2023-02-19T04:32:58;4.10;;;1.23;;
43744;SDS011;29359;53.048;8.732;2023-02-19T04:35:00;5.70;;;1.65;;
43744;SDS011;29359;53.048;8.732;2023-02-19T04:37:01;4.60;;;1.17;;
43744;SDS011;29359;53.048;8.732;2023-02-19T04:39:03;2.42;;;1.33;;
43744;SDS011;29359;53.048;8.732;2023-02-19T04:41:04;5.32;;;1.90;;
43744;SDS011;29359;53.048;8.732;2023-02-19T04:43:06;3.85;;;0.93;;
43744;SDS011;29359;53.048;8.732;2023-02-19T04:45:07;2.97;;;0.90;;
43744;SDS011;29359;53.048;8.732;2023-02-19T04:47:09;2.63;;;1.50;;
43744;SDS011;29359;53.048;8.732;2023-02-19T04:49:10;2.60;;;1.20;;
43744;SDS011;29359;53.048;8.732;2023-02-19T04:51:12;3.33;;;1.30;;
43744;SDS011;29359;53.048;8.732;2023-02-19T04:53:14;3.85;;;1.50;;
43744;SDS011;29359;53.048;8.732;2023-02-19T04:55:15;3.80;;;1.42;;
43744;SDS011;29359;53.048;8.732;2023-02-19T04:57:17;3.75;;;1.67;;
43744;SDS011;29359;53.048;8.732;2023-02-19T04:59:19;3.60;;;1.50;;
43744;SDS011;29359;53.048;8.732;2023-02-19T05:01:20;4.78;;;1.35;;
43744;SDS011;29359;53.048;8.732;2023-02-19T05:03:22;3.30;;;1.40;;
43744;SDS011;29359;53.048;8.732;2023-02-19T05:05:23;4.63;;;1.45;;
43744;SDS011;29359;53.048;8.732;2023-02-19T05:07:25;4.95;;;1.67;;
43744;SDS011;29359;53.048;8.732;2023-02-19T05:09:26;5.53;;;2.10;;
43744;SDS011;29359;53.048;8.732;2023-02-19T05:11:27;2.33;;;1.50;;
43744;SDS011;29359;53.048;8.732;2023-02-19T05:13:29;3.22;;;1.50;;
43744;SDS011;29359;53.048;8.732;2023-02-19T05:15:31;2.47;;;1.30;;
43744;SDS011;29359;53.048;8.732;2023-02-19T05:17:33;5.18;;;1.33;;
43744;SDS011;29359;53.048;8.732;2023-02-19T05:19:35;2.97;;;1.08;;
43744;SDS011;29359;53.048;8.732;2023-02-19T05:21:36;2.70;;;1.05;;
43744;SDS011;29359;53.048;8.732;2023-02-19T05:23:39;4.50;;;1.08;;
43744;SDS011;29359;53.048;8.732;2023-02-19T05:25:41;2.45;;;0.80;;
43744;SDS011;29359;53.048;8.732;2023-02-19T05:27:43;5.28;;;1.20;;
43744;SDS011;29359;53.048;8.732;2023-02-19T05:29:44;4.07;;;1.20;;
43744;SDS011;29359;53.048;8.732;2023-02-19T05:31:46;2.60;;;0.80;;
43744;SDS011;29359;53.048;8.732;2023-02-19T05:33:49;3.72;;;0.88;;
43744;SDS011;29359;53.048;8.732;2023-02-19T05:35:54;3.70;;;1.00;;
43744;SDS011;29359;53.048;8.732;2023-02-19T05:37:56;1.58;;;0.75;;
43744;SDS011;29359;53.048;8.732;2023-02-19T05:39:57;4.75;;;1.25;;
43744;SDS011;29359;53.048;8.732;2023-02-19T05:41:59;3.38;;;1.08;;
43744;SDS011;29359;53.048;8.732;2023-02-19T05:44:00;5.13;;;1.40;;
43744;SDS011;29359;53.048;8.732;2023-02-19T05:46:02;4.53;;;1.40;;
43744;SDS011;29359;53.048;8.732;2023-02-19T05:48:03;2.13;;;1.00;;
43744;SDS011;29359;53.048;8.732;2023-02-19T05:50:06;4.68;;;1.13;;
43744;SDS011;29359;53.048;8.732;2023-02-19T05:52:07;2.45;;;1.35;;
43744;SDS011;29359;53.048;8.732;2023-02-19T05:54:09;3.17;;;1.15;;
43744;SDS011;29359;53.048;8.732;2023-02-19T05:56:22;2.88;;;1.48;;
43744;SDS011;29359;53.048;8.732;2023-02-19T05:58:25;4.88;;;2.00;;
43744;SDS011;29359;53.048;8.732;2023-02-19T06:00:27;4.60;;;1.98;;
43744;SDS011;29359;53.048;8.732;2023-02-19T06:02:28;4.72;;;2.50;;
43744;SDS011;29359;53.048;8.732;2023-02-19T06:04:30;4.43;;;1.88;;
43744;SDS011;29359;53.048;8.732;2023-02-19T06:06:31;5.40;;;3.08;;
43744;SDS011;29359;53.048;8.732;2023-02-19T06:08:33;5.43;;;1.73;;
43744;SDS011;29359;53.048;8.732;2023-02-19T06:10:34;5.03;;;1.80;;
43744;SDS011;29359;53.048;8.732;2023-02-19T06:12:37;5.30;;;2.20;;
43744;SDS011;29359;53.048;8.732;2023-02-19T06:14:39;4.63;;;1.52;;
43744;SDS011;29359;53.048;8.732;2023-02-19T06:16:41;6.78;;;1.80;;
43744;SDS011;29359;53.048;8.732;2023-02-19T06:18:43;3.63;;;2.10;;
43744;SDS011;29359;53.048;8.732;2023-02-19T06:20:45;6.13;;;1.67;;
43744;SDS011;29359;53.048;8.732;2023-02-19T06:22:48;3.08;;;1.70;;
43744;SDS011;29359;53.048;8.732;2023-02-19T06:24:50;5.35;;;1.70;;
43744;SDS011;29359;53.048;8.732;2023-02-19T06:26:52;5.07;;;1.55;;
43744;SDS011;29359;53.048;8.732;2023-02-19T06:28:53;5.53;;;2.08;;
43744;SDS011;29359;53.048;8.732;2023-02-19T06:30:56;3.22;;;2.25;;
43744;SDS011;29359;53.048;8.732;2023-02-19T06:32:58;5.53;;;2.45;;
43744;SDS011;29359;53.048;8.732;2023-02-19T06:35:00;3.72;;;1.92;;
43744;SDS011;29359;53.048;8.732;2023-02-19T06:37:01;9.63;;;2.17;;
43744;SDS011;29359;53.048;8.732;2023-02-19T06:39:03;6.05;;;2.50;;
43744;SDS011;29359;53.048;8.732;2023-02-19T06:41:06;5.88;;;2.30;;
43744;SDS011;29359;53.048;8.732;2023-02-19T06:43:09;4.15;;;2.35;;
43744;SDS011;29359;53.048;8.732;2023-02-19T06:45:10;6.28;;;1.83;;
43744;SDS011;29359;53.048;8.732;2023-02-19T06:47:12;7.90;;;2.85;;
43744;SDS011;29359;53.048;8.732;2023-02-19T06:49:13;3.22;;;1.83;;
43744;SDS011;29359;53.048;8.732;2023-02-19T06:51:16;3.17;;;1.92;;
43744;SDS011;29359;53.048;8.732;2023-02-19T06:53:19;4.70;;;1.70;;
43744;SDS011;29359;53.048;8.732;2023-02-19T06:55:21;6.68;;;2.00;;
43744;SDS011;29359;53.048;8.732;2023-02-19T06:57:22;5.53;;;2.30;;
43744;SDS011;29359;53.048;8.732;2023-02-19T06:59:24;4.80;;;1.70;;
43744;SDS011;29359;53.048;8.732;2023-02-19T07:01:26;8.32;;;2.67;;
43744;SDS011;29359;53.048;8.732;2023-02-19T07:03:29;10.88;;;2.40;;
43744;SDS011;29359;53.048;8.732;2023-02-19T07:05:30;4.85;;;1.92;;
43744;SDS011;29359;53.048;8.732;2023-02-19T07:07:32;3.58;;;1.80;;
43744;SDS011;29359;53.048;8.732;2023-02-19T07:09:33;6.60;;;2.50;;
43744;SDS011;29359;53.048;8.732;2023-02-19T07:11:35;9.00;;;2.10;;
43744;SDS011;29359;53.048;8.732;2023-02-19T07:13:39;2.78;;;1.90;;
43744;SDS011;29359;53.048;8.732;2023-02-19T07:15:40;3.65;;;1.90;;
43744;SDS011;29359;53.048;8.732;2023-02-19T07:17:42;7.95;;;1.90;;
43744;SDS011;29359;53.048;8.732;2023-02-19T07:19:43;6.07;;;2.45;;
43744;SDS011;29359;53.048;8.732;2023-02-19T07:21:45;4.65;;;2.30;;
43744;SDS011;29359;53.048;8.732;2023-02-19T07:23:46;6.85;;;2.20;;
43744;SDS011;29359;53.048;8.732;2023-02-19T07:25:48;5.45;;;2.33;;
43744;SDS011;29359;53.048;8.732;2023-02-19T07:27:49;4.90;;;1.98;;
43744;SDS011;29359;53.048;8.732;2023-02-19T07:29:51;6.03;;;2.15;;
43744;SDS011;29359;53.048;8.732;2023-02-19T07:31:52;3.55;;;2.17;;
43744;SDS011;29359;53.048;8.732;2023-02-19T07:33:54;5.70;;;2.35;;
43744;SDS011;29359;53.048;8.732;2023-02-19T07:35:56;4.35;;;1.95;;
43744;SDS011;29359;53.048;8.732;2023-02-19T07:37:57;4.45;;;2.10;;
43744;SDS011;29359;53.048;8.732;2023-02-19T07:39:59;4.40;;;2.05;;
43744;SDS011;29359;53.048;8.732;2023-02-19T07:42:00;3.60;;;2.05;;
43744;SDS011;29359;53.048;8.732;2023-02-19T07:44:02;6.30;;;2.70;;
43744;SDS011;29359;53.048;8.732;2023-02-19T07:46:04;3.28;;;2.40;;
43744;SDS011;29359;53.048;8.732;2023-02-19T07:48:07;7.25;;;2.55;;
43744;SDS011;29359;53.048;8.732;2023-02-19T07:50:08;7.32;;;3.08;;
43744;SDS011;29359;53.048;8.732;2023-02-19T07:52:11;6.43;;;3.03;;
43744;SDS011;29359;53.048;8.732;2023-02-19T07:54:13;4.57;;;2.70;;
43744;SDS011;29359;53.048;8.732;2023-02-19T07:56:15;5.15;;;2.63;;
43744;SDS011;29359;53.048;8.732;2023-02-19T07:58:17;8.13;;;2.70;;
43744;SDS011;29359;53.048;8.732;2023-02-19T08:00:18;7.07;;;2.63;;
43744;SDS011;29359;53.048;8.732;2023-02-19T08:02:20;6.53;;;2.95;;
43744;SDS011;29359;53.048;8.732;2023-02-19T08:04:40;8.63;;;2.50;;
43744;SDS011;29359;53.048;8.732;2023-02-19T08:06:42;4.05;;;2.90;;
43744;SDS011;29359;53.048;8.732;2023-02-19T08:08:43;4.40;;;3.20;;
43744;SDS011;29359;53.048;8.732;2023-02-19T08:10:45;9.15;;;3.95;;
43744;SDS011;29359;53.048;8.732;2023-02-19T08:13:05;7.22;;;3.30;;
43744;SDS011;29359;53.048;8.732;2023-02-19T08:15:25;6.43;;;3.15;;
43744;SDS011;29359;53.048;8.732;2023-02-19T08:17:27;8.48;;;3.83;;
43744;SDS011;29359;53.048;8.732;2023-02-19T08:19:30;9.98;;;4.40;;
43744;SDS011;29359;53.048;8.732;2023-02-19T08:21:31;7.22;;;4.07;;
43744;SDS011;29359;53.048;8.732;2023-02-19T08:23:34;10.07;;;4.63;;
43744;SDS011;29359;53.048;8.732;2023-02-19T08:25:37;11.85;;;5.03;;
43744;SDS011;29359;53.048;8.732;2023-02-19T08:27:38;10.45;;;5.22;;
43744;SDS011;29359;53.048;8.732;2023-02-19T08:29:40;9.55;;;4.72;;
43744;SDS011;29359;53.048;8.732;2023-02-19T08:31:41;7.65;;;5.10;;
43744;SDS011;29359;53.048;8.732;2023-02-19T08:33:43;7.65;;;5.10;;
43744;SDS011;29359;53.048;8.732;2023-02-19T08:35:45;10.07;;;5.30;;
43744;SDS011;29359;53.048;8.732;2023-02-19T08:37:47;7.38;;;5.50;;
43744;SDS011;29359;53.048;8.732;2023-02-19T08:39:48;8.90;;;5.28;;
43744;SDS011;29359;53.048;8.732;2023-02-19T08:41:50;10.00;;;4.80;;
43744;SDS011;29359;53.048;8.732;2023-02-19T08:43:51;11.32;;;4.88;;
43744;SDS011;29359;53.048;8.732;2023-02-19T08:45:53;10.55;;;5.13;;
43744;SDS011;29359;53.048;8.732;2023-02-19T08:47:55;8.05;;;4.95;;
43744;SDS011;29359;53.048;8.732;2023-02-19T08:49:57;9.23;;;4.50;;
43744;SDS011;29359;53.048;8.732;2023-02-19T08:51:58;9.40;;;4.70;;
43744;SDS011;29359;53.048;8.732;2023-02-19T08:54:01;13.55;;;4.47;;
43744;SDS011;29359;53.048;8.732;2023-02-19T08:56:04;9.77;;;4.25;;
43744;SDS011;29359;53.048;8.732;2023-02-19T08:58:07;8.43;;;4.53;;
43744;SDS011;29359;53.048;8.732;2023-02-19T09:00:10;9.35;;;3.88;;
43744;SDS011;29359;53.048;8.732;2023-02-19T09:02:13;11.00;;;4.20;;
43744;SDS011;29359;53.048;8.732;2023-02-19T09:04:14;10.07;;;4.63;;
43744;SDS011;29359;53.048;8.732;2023-02-19T09:06:17;10.93;;;3.83;;
43744;SDS011;29359;53.048;8.732;2023-02-19T09:08:20;5.65;;;3.45;;
43744;SDS011;29359;53.048;8.732;2023-02-19T09:10:21;7.32;;;3.30;;
43744;SDS011;29359;53.048;8.732;2023-02-19T09:12:23;5.32;;;3.55;;
43744;SDS011;29359;53.048;8.732;2023-02-19T09:14:25;6.65;;;3.13;;
43744;SDS011;29359;53.048;8.732;2023-02-19T09:16:27;5.03;;;3.22;;
43744;SDS011;29359;53.048;8.732;2023-02-19T09:18:28;7.38;;;2.65;;
43744;SDS011;29359;53.048;8.732;2023-02-19T09:20:30;4.90;;;2.53;;
43744;SDS011;29359;53.048;8.732;2023-02-19T09:22:31;5.32;;;2.65;;
43744;SDS011;29359;53.048;8.732;2023-02-19T09:24:33;5.55;;;2.40;;
43744;SDS011;29359;53.048;8.732;2023-02-19T09:26:34;5.80;;;2.30;;
43744;SDS011;29359;53.048;8.732;2023-02-19T09:28:38;8.27;;;2.20;;
43744;SDS011;29359;53.048;8.732;2023-02-19T09:30:42;7.13;;;2.30;;
43744;SDS011;29359;53.048;8.732;2023-02-19T09:32:43;8.00;;;2.22;;
43744;SDS011;29359;53.048;8.732;2023-02-19T09:34:45;7.10;;;2.25;;
43744;SDS011;29359;53.048;8.732;2023-02-19T09:36:49;6.85;;;2.47;;
43744;SDS011;29359;53.048;8.732;2023-02-19T09:38:52;3.53;;;1.70;;
43744;SDS011;29359;53.048;8.732;2023-02-19T09:40:54;4.18;;;1.58;;
43744;SDS011;29359;53.048;8.732;2023-02-19T09:42:57;5.97;;;2.20;;
43744;SDS011;29359;53.048;8.732;2023-02-19T09:45:02;4.93;;;2.08;;
43744;SDS011;29359;53.048;8.732;2023-02-19T09:47:06;3.08;;;2.25;;
43744;SDS011;29359;53.048;8.732;2023-02-19T09:49:17;8.02;;;2.80;;
43744;SDS011;29359;53.048;8.732;2023-02-19T09:51:21;6.07;;;1.90;;
43744;SDS011;29359;53.048;8.732;2023-02-19T09:53:26;6.47;;;1.70;;
43744;SDS011;29359;53.048;8.732;2023-02-19T09:55:34;4.00;;;1.70;;
43744;SDS011;29359;53.048;8.732;2023-02-19T09:57:39;6.05;;;2.55;;
43744;SDS011;29359;53.048;8.732;2023-02-19T09:59:43;3.75;;;1.50;;
43744;SDS011;29359;53.048;8.732;2023-02-19T10:01:48;4.40;;;1.70;;
43744;SDS011;29359;53.048;8.732;2023-02-19T10:03:57;3.30;;;1.50;;
43744;SDS011;29359;53.048;8.732;2023-02-19T10:06:06;3.63;;;1.75;;
43744;SDS011;29359;53.048;8.732;2023-02-19T10:08:13;8.73;;;1.77;;
43744;SDS011;29359;53.048;8.732;2023-02-19T10:12:31;4.75;;;1.42;;
43744;SDS011;29359;53.048;8.732;2023-02-19T10:14:35;5.38;;;1.63;;
43744;SDS011;29359;53.048;8.732;2023-02-19T10:16:42;4.88;;;1.50;;
43744;SDS011;29359;53.048;8.732;2023-02-19T10:18:46;3.55;;;1.48;;
43744;SDS011;29359;53.048;8.732;2023-02-19T10:20:48;5.75;;;1.90;;
43744;SDS011;29359;53.048;8.732;2023-02-19T10:22:59;11.50;;;2.15;;
43744;SDS011;29359;53.048;8.732;2023-02-19T10:25:04;3.28;;;1.55;;
43744;SDS011;29359;53.048;8.732;2023-02-19T10:27:10;2.53;;;1.40;;
43744;SDS011;29359;53.048;8.732;2023-02-19T10:29:13;5.78;;;1.20;;
43744;SDS011;29359;53.048;8.732;2023-02-19T10:31:19;3.25;;;1.05;;
43744;SDS011;29359;53.048;8.732;2023-02-19T10:33:23;1.45;;;0.60;;
43744;SDS011;29359;53.048;8.732;2023-02-19T10:35:26;4.55;;;1.10;;
43744;SDS011;29359;53.048;8.732;2023-02-19T10:37:28;7.95;;;1.67;;
43744;SDS011;29359;53.048;8.732;2023-02-19T10:39:48;3.88;;;1.13;;
43744;SDS011;29359;53.048;8.732;2023-02-19T10:41:50;7.93;;;3.08;;
43744;SDS011;29359;53.048;8.732;2023-02-19T10:44:06;6.25;;;1.15;;
43744;SDS011;29359;53.048;8.732;2023-02-19T10:46:25;5.80;;;0.73;;
43744;SDS011;29359;53.048;8.732;2023-02-19T10:48:30;8.82;;;0.93;;
43744;SDS011;29359;53.048;8.732;2023-02-19T10:50:36;6.10;;;1.23;;
43744;SDS011;29359;53.048;8.732;2023-02-19T10:52:39;5.50;;;1.02;;
43744;SDS011;29359;53.048;8.732;2023-02-19T10:54:42;4.30;;;0.90;;
43744;SDS011;29359;53.048;8.732;2023-02-19T10:56:45;8.18;;;1.08;;
43744;SDS011;29359;53.048;8.732;2023-02-19T10:58:47;6.20;;;0.90;;
43744;SDS011;29359;53.048;8.732;2023-02-19T11:00:53;4.68;;;1.10;;
43744;SDS011;29359;53.048;8.732;2023-02-19T11:03:20;3.90;;;0.80;;
43744;SDS011;29359;53.048;8.732;2023-02-19T11:05:22;5.53;;;0.85;;
43744;SDS011;29359;53.048;8.732;2023-02-19T11:07:24;5.88;;;0.80;;
43744;SDS011;29359;53.048;8.732;2023-02-19T11:09:27;6.10;;;0.93;;
43744;SDS011;29359;53.048;8.732;2023-02-19T11:13:37;4.50;;;0.50;;
43744;SDS011;29359;53.048;8.732;2023-02-19T11:15:42;3.72;;;0.70;;
43744;SDS011;29359;53.048;8.732;2023-02-19T11:17:44;5.93;;;0.90;;
43744;SDS011;29359;53.048;8.732;2023-02-19T11:19:54;7.15;;;1.23;;
43744;SDS011;29359;53.048;8.732;2023-02-19T11:21:58;6.40;;;0.95;;
43744;SDS011;29359;53.048;8.732;2023-02-19T11:24:01;11.93;;;1.85;;
43744;SDS011;29359;53.048;8.732;2023-02-19T11:26:12;4.75;;;1.20;;
43744;SDS011;29359;53.048;8.732;2023-02-19T11:32:36;5.82;;;0.95;;
43744;SDS011;29359;53.048;8.732;2023-02-19T11:34:37;7.78;;;1.05;;
43744;SDS011;29359;53.048;8.732;2023-02-19T11:36:39;4.80;;;0.75;;
43744;SDS011;29359;53.048;8.732;2023-02-19T11:38:42;4.70;;;1.13;;
43744;SDS011;29359;53.048;8.732;2023-02-19T11:40:49;8.23;;;0.90;;
43744;SDS011;29359;53.048;8.732;2023-02-19T11:43:02;9.45;;;1.17;;
43744;SDS011;29359;53.048;8.732;2023-02-19T11:49:33;3.78;;;0.82;;
43744;SDS011;29359;53.048;8.732;2023-02-19T11:56:22;8.73;;;1.00;;
43744;SDS011;29359;53.048;8.732;2023-02-19T11:58:41;4.28;;;0.68;;
43744;SDS011;29359;53.048;8.732;2023-02-19T12:03:33;3.17;;;0.63;;
43744;SDS011;29359;53.048;8.732;2023-02-19T12:08:38;4.15;;;0.98;;
43744;SDS011;29359;53.048;8.732;2023-02-19T12:13:18;4.13;;;1.10;;
43744;SDS011;29359;53.048;8.732;2023-02-19T12:18:12;3.10;;;0.50;;
43744;SDS011;29359;53.048;8.732;2023-02-19T12:47:39;4.03;;;0.60;;
43744;SDS011;29359;53.048;8.732;2023-02-19T12:49:45;6.45;;;0.95;;
43744;SDS011;29359;53.048;8.732;2023-02-19T12:51:57;3.53;;;0.73;;
43744;SDS011;29359;53.048;8.732;2023-02-19T12:54:05;4.35;;;0.85;;
43744;SDS011;29359;53.048;8.732;2023-02-19T12:56:33;6.78;;;0.82;;
43744;SDS011;29359;53.048;8.732;2023-02-19T12:58:51;3.00;;;0.68;;
43744;SDS011;29359;53.048;8.732;2023-02-19T13:00:56;4.95;;;0.70;;
43744;SDS011;29359;53.048;8.732;2023-02-19T13:03:13;4.85;;;0.70;;
43744;SDS011;29359;53.048;8.732;2023-02-19T13:07:50;3.15;;;0.60;;
43744;SDS011;29359;53.048;8.732;2023-02-19T13:10:03;1.63;;;0.60;;
43744;SDS011;29359;53.048;8.732;2023-02-19T13:12:26;3.83;;;0.77;;
43744;SDS011;29359;53.048;8.732;2023-02-19T13:14:32;2.65;;;0.50;;
43744;SDS011;29359;53.048;8.732;2023-02-19T13:16:41;3.67;;;0.55;;
43744;SDS011;29359;53.048;8.732;2023-02-19T13:18:52;4.63;;;0.60;;
43744;SDS011;29359;53.048;8.732;2023-02-19T13:20:57;0.75;;;0.38;;
43744;SDS011;29359;53.048;8.732;2023-02-19T13:23:06;5.07;;;0.50;;
43744;SDS011;29359;53.048;8.732;2023-02-19T13:25:40;5.82;;;0.90;;
43744;SDS011;29359;53.048;8.732;2023-02-19T13:28:03;6.20;;;1.15;;
43744;SDS011;29359;53.048;8.732;2023-02-19T13:37:05;3.88;;;0.85;;
43744;SDS011;29359;53.048;8.732;2023-02-19T13:39:11;5.38;;;0.70;;
43744;SDS011;29359;53.048;8.732;2023-02-19T13:41:16;4.40;;;0.65;;
43744;SDS011;29359;53.048;8.732;2023-02-19T13:43:22;3.70;;;0.73;;
43744;SDS011;29359;53.048;8.732;2023-02-19T13:50:11;4.63;;;0.68;;
43744;SDS011;29359;53.048;8.732;2023-02-19T13:54:31;4.97;;;0.77;;
43744;SDS011;29359;53.048;8.732;2023-02-19T13:56:36;3.75;;;0.52;;
43744;SDS011;29359;53.048;8.732;2023-02-19T13:58:50;5.75;;;0.93;;
43744;SDS011;29359;53.048;8.732;2023-02-19T14:00:53;4.43;;;0.75;;
43744;SDS011;29359;53.048;8.732;2023-02-19T14:03:24;2.83;;;0.60;;
43744;SDS011;29359;53.048;8.732;2023-02-19T14:05:55;5.45;;;0.73;;